sensor_id;sensor_type;location;lat;lon;timestamp;temperature;humidity
14771;DHT22;7477;45.222;5.688;2023-08-30T00:00:34;15.40;96.30
14771;DHT22;7477;45.222;5.688;2023-08-30T00:03:53;15.30;96.20
14771;DHT22;7477;45.222;5.688;2023-08-30T00:07:13;15.30;96.10
14771;DHT22;7477;45.222;5.688;2023-08-30T00:10:32;15.30;96.10
14771;DHT22;7477;45.222;5.688;2023-08-30T00:13:52;15.30;96.20
14771;DHT22;7477;45.222;5.688;2023-08-30T00:17:11;15.30;96.10
14771;DHT22;7477;45.222;5.688;2023-08-30T00:20:30;15.30;96.00
14771;DHT22;7477;45.222;5.688;2023-08-30T00:23:49;15.40;96.10
14771;DHT22;7477;45.222;5.688;2023-08-30T00:27:08;15.40;96.20
14771;DHT22;7477;45.222;5.688;2023-08-30T00:30:28;15.40;96.40
14771;DHT22;7477;45.222;5.688;2023-08-30T00:33:48;15.40;96.60
14771;DHT22;7477;45.222;5.688;2023-08-30T00:37:08;15.40;96.70
14771;DHT22;7477;45.222;5.688;2023-08-30T00:40:29;15.30;96.60
14771;DHT22;7477;45.222;5.688;2023-08-30T00:43:48;15.40;96.90
14771;DHT22;7477;45.222;5.688;2023-08-30T00:47:07;15.40;96.90
14771;DHT22;7477;45.222;5.688;2023-08-30T00:50:27;15.40;97.50
14771;DHT22;7477;45.222;5.688;2023-08-30T00:53:47;15.50;98.10
14771;DHT22;7477;45.222;5.688;2023-08-30T00:57:08;15.50;98.70
14771;DHT22;7477;45.222;5.688;2023-08-30T01:00:31;15.40;99.40
14771;DHT22;7477;45.222;5.688;2023-08-30T01:03:51;15.40;99.90
14771;DHT22;7477;45.222;5.688;2023-08-30T01:07:10;15.40;99.90
14771;DHT22;7477;45.222;5.688;2023-08-30T01:14:22;15.30;99.90
14771;DHT22;7477;45.222;5.688;2023-08-30T01:17:50;15.20;99.90
14771;DHT22;7477;45.222;5.688;2023-08-30T01:21:18;15.20;99.90
14771;DHT22;7477;45.222;5.688;2023-08-30T01:24:46;15.20;99.90
14771;DHT22;7477;45.222;5.688;2023-08-30T01:28:08;15.20;99.90
14771;DHT22;7477;45.222;5.688;2023-08-30T01:31:29;15.10;99.90
14771;DHT22;7477;45.222;5.688;2023-08-30T01:34:52;15.00;99.90
14771;DHT22;7477;45.222;5.688;2023-08-30T01:38:13;15.10;99.90
14771;DHT22;7477;45.222;5.688;2023-08-30T01:41:35;15.10;99.90
14771;DHT22;7477;45.222;5.688;2023-08-30T01:44:57;15.00;99.90
14771;DHT22;7477;45.222;5.688;2023-08-30T01:48:18;14.90;99.90
14771;DHT22;7477;45.222;5.688;2023-08-30T01:51:39;14.90;99.90
14771;DHT22;7477;45.222;5.688;2023-08-30T01:55:00;14.80;99.90
14771;DHT22;7477;45.222;5.688;2023-08-30T01:58:20;14.70;99.90
14771;DHT22;7477;45.222;5.688;2023-08-30T02:01:39;14.70;99.90
14771;DHT22;7477;45.222;5.688;2023-08-30T02:04:59;14.60;99.90
14771;DHT22;7477;45.222;5.688;2023-08-30T02:08:22;14.60;99.90
14771;DHT22;7477;45.222;5.688;2023-08-30T02:11:46;14.50;99.90
14771;DHT22;7477;45.222;5.688;2023-08-30T02:15:08;14.40;99.90
14771;DHT22;7477;45.222;5.688;2023-08-30T02:18:29;14.30;99.90
14771;DHT22;7477;45.222;5.688;2023-08-30T02:21:48;14.30;99.90
14771;DHT22;7477;45.222;5.688;2023-08-30T02:25:08;14.20;99.90
14771;DHT22;7477;45.222;5.688;2023-08-30T02:28:29;14.20;99.90
14771;DHT22;7477;45.222;5.688;2023-08-30T02:31:48;14.10;99.90
14771;DHT22;7477;45.222;5.688;2023-08-30T02:35:08;14.10;99.90
14771;DHT22;7477;45.222;5.688;2023-08-30T02:38:27;14.10;99.90
14771;DHT22;7477;45.222;5.688;2023-08-30T02:41:46;14.10;99.90
14771;DHT22;7477;45.222;5.688;2023-08-30T02:45:05;14.10;99.90
14771;DHT22;7477;45.222;5.688;2023-08-30T02:48:24;14.10;99.90
14771;DHT22;7477;45.222;5.688;2023-08-30T02:51:44;14.10;99.90
14771;DHT22;7477;45.222;5.688;2023-08-30T02:55:03;14.00;99.90
14771;DHT22;7477;45.222;5.688;2023-08-30T02:58:22;14.00;99.90
14771;DHT22;7477;45.222;5.688;2023-08-30T03:01:42;14.00;99.90
14771;DHT22;7477;45.222;5.688;2023-08-30T03:05:02;14.00;99.90
14771;DHT22;7477;45.222;5.688;2023-08-30T03:08:23;14.00;99.90
14771;DHT22;7477;45.222;5.688;2023-08-30T03:11:42;13.90;99.90
14771;DHT22;7477;45.222;5.688;2023-08-30T03:15:01;13.90;99.90
14771;DHT22;7477;45.222;5.688;2023-08-30T03:18:21;13.90;99.90
14771;DHT22;7477;45.222;5.688;2023-08-30T03:21:40;13.90;99.90
14771;DHT22;7477;45.222;5.688;2023-08-30T03:24:59;13.80;99.90
14771;DHT22;7477;45.222;5.688;2023-08-30T03:28:20;13.80;99.90
14771;DHT22;7477;45.222;5.688;2023-08-30T03:31:39;13.80;99.90
14771;DHT22;7477;45.222;5.688;2023-08-30T03:34:58;13.70;99.90
14771;DHT22;7477;45.222;5.688;2023-08-30T03:38:18;13.70;99.90
14771;DHT22;7477;45.222;5.688;2023-08-30T03:41:37;13.70;99.90
14771;DHT22;7477;45.222;5.688;2023-08-30T03:44:57;13.70;99.90
14771;DHT22;7477;45.222;5.688;2023-08-30T03:48:16;13.60;99.90
14771;DHT22;7477;45.222;5.688;2023-08-30T03:51:36;13.60;99.90
14771;DHT22;7477;45.222;5.688;2023-08-30T03:54:55;13.60;99.90
14771;DHT22;7477;45.222;5.688;2023-08-30T03:58:14;13.60;99.90
14771;DHT22;7477;45.222;5.688;2023-08-30T04:01:33;13.50;99.90
14771;DHT22;7477;45.222;5.688;2023-08-30T04:04:53;13.40;99.90
14771;DHT22;7477;45.222;5.688;2023-08-30T04:08:12;13.40;99.90
14771;DHT22;7477;45.222;5.688;2023-08-30T04:11:31;13.40;99.90
14771;DHT22;7477;45.222;5.688;2023-08-30T04:14:51;13.30;99.90
14771;DHT22;7477;45.222;5.688;2023-08-30T04:18:10;13.30;99.90
14771;DHT22;7477;45.222;5.688;2023-08-30T04:21:29;13.20;99.90
14771;DHT22;7477;45.222;5.688;2023-08-30T04:24:49;13.10;99.90
14771;DHT22;7477;45.222;5.688;2023-08-30T04:28:08;13.10;99.90
14771;DHT22;7477;45.222;5.688;2023-08-30T04:31:27;13.20;99.90
14771;DHT22;7477;45.222;5.688;2023-08-30T04:34:46;13.10;99.90
14771;DHT22;7477;45.222;5.688;2023-08-30T04:38:06;13.10;99.90
14771;DHT22;7477;45.222;5.688;2023-08-30T04:41:25;13.10;99.90
14771;DHT22;7477;45.222;5.688;2023-08-30T04:44:44;13.10;99.90
14771;DHT22;7477;45.222;5.688;2023-08-30T04:48:04;13.00;99.90
14771;DHT22;7477;45.222;5.688;2023-08-30T04:51:23;13.00;99.90
14771;DHT22;7477;45.222;5.688;2023-08-30T04:54:42;13.00;99.90
14771;DHT22;7477;45.222;5.688;2023-08-30T04:58:02;13.00;99.90
14771;DHT22;7477;45.222;5.688;2023-08-30T05:01:21;13.00;99.90
14771;DHT22;7477;45.222;5.688;2023-08-30T05:04:41;13.00;99.90
14771;DHT22;7477;45.222;5.688;2023-08-30T05:08:00;12.90;99.90
14771;DHT22;7477;45.222;5.688;2023-08-30T05:11:19;12.90;99.90
14771;DHT22;7477;45.222;5.688;2023-08-30T05:14:38;12.90;99.90
14771;DHT22;7477;45.222;5.688;2023-08-30T05:18:00;12.90;99.90
14771;DHT22;7477;45.222;5.688;2023-08-30T05:21:19;12.80;99.90
14771;DHT22;7477;45.222;5.688;2023-08-30T05:24:38;12.80;99.90
14771;DHT22;7477;45.222;5.688;2023-08-30T05:27:57;12.90;99.90
14771;DHT22;7477;45.222;5.688;2023-08-30T05:31:16;12.80;99.90
14771;DHT22;7477;45.222;5.688;2023-08-30T05:34:35;12.80;99.90
14771;DHT22;7477;45.222;5.688;2023-08-30T05:37:54;12.90;99.90
14771;DHT22;7477;45.222;5.688;2023-08-30T05:41:13;12.90;99.90
14771;DHT22;7477;45.222;5.688;2023-08-30T05:44:32;12.90;99.90
14771;DHT22;7477;45.222;5.688;2023-08-30T05:47:52;12.90;99.90
14771;DHT22;7477;45.222;5.688;2023-08-30T05:51:11;12.90;99.90
14771;DHT22;7477;45.222;5.688;2023-08-30T05:54:30;13.00;99.90
14771;DHT22;7477;45.222;5.688;2023-08-30T05:57:50;13.00;99.90
14771;DHT22;7477;45.222;5.688;2023-08-30T06:01:09;13.00;99.90
14771;DHT22;7477;45.222;5.688;2023-08-30T06:04:28;13.00;99.90
14771;DHT22;7477;45.222;5.688;2023-08-30T06:07:48;13.00;99.90
14771;DHT22;7477;45.222;5.688;2023-08-30T06:11:07;13.00;99.90
14771;DHT22;7477;45.222;5.688;2023-08-30T06:14:27;13.00;99.90
14771;DHT22;7477;45.222;5.688;2023-08-30T06:17:47;13.10;99.90
14771;DHT22;7477;45.222;5.688;2023-08-30T06:21:06;13.10;99.90
14771;DHT22;7477;45.222;5.688;2023-08-30T06:24:26;13.20;99.90
14771;DHT22;7477;45.222;5.688;2023-08-30T06:27:58;13.20;99.90
14771;DHT22;7477;45.222;5.688;2023-08-30T06:31:18;13.20;99.90
14771;DHT22;7477;45.222;5.688;2023-08-30T06:34:37;13.30;99.90
14771;DHT22;7477;45.222;5.688;2023-08-30T06:37:56;13.30;99.90
14771;DHT22;7477;45.222;5.688;2023-08-30T06:41:15;13.40;99.90
14771;DHT22;7477;45.222;5.688;2023-08-30T06:44:35;13.50;99.90
14771;DHT22;7477;45.222;5.688;2023-08-30T06:47:54;13.60;99.90
14771;DHT22;7477;45.222;5.688;2023-08-30T06:51:14;13.60;99.90
14771;DHT22;7477;45.222;5.688;2023-08-30T06:54:34;13.60;99.90
14771;DHT22;7477;45.222;5.688;2023-08-30T06:57:54;13.60;99.90
14771;DHT22;7477;45.222;5.688;2023-08-30T07:01:13;13.50;99.90
14771;DHT22;7477;45.222;5.688;2023-08-30T07:04:33;13.50;99.90
14771;DHT22;7477;45.222;5.688;2023-08-30T07:07:52;13.60;99.90
14771;DHT22;7477;45.222;5.688;2023-08-30T07:11:11;13.60;99.90
14771;DHT22;7477;45.222;5.688;2023-08-30T07:14:30;13.60;99.90
14771;DHT22;7477;45.222;5.688;2023-08-30T07:17:49;13.60;99.90
14771;DHT22;7477;45.222;5.688;2023-08-30T07:21:08;13.60;99.90
14771;DHT22;7477;45.222;5.688;2023-08-30T07:24:27;13.70;99.90
14771;DHT22;7477;45.222;5.688;2023-08-30T07:27:46;13.60;99.90
14771;DHT22;7477;45.222;5.688;2023-08-30T07:31:06;13.70;99.90
14771;DHT22;7477;45.222;5.688;2023-08-30T07:34:25;13.80;99.90
14771;DHT22;7477;45.222;5.688;2023-08-30T07:37:45;13.80;99.90
14771;DHT22;7477;45.222;5.688;2023-08-30T07:41:05;13.90;99.90
14771;DHT22;7477;45.222;5.688;2023-08-30T07:44:24;14.00;99.90
14771;DHT22;7477;45.222;5.688;2023-08-30T07:47:43;14.00;99.90
14771;DHT22;7477;45.222;5.688;2023-08-30T07:51:02;14.20;99.90
14771;DHT22;7477;45.222;5.688;2023-08-30T07:54:21;14.20;99.90
14771;DHT22;7477;45.222;5.688;2023-08-30T07:57:40;14.30;99.90
14771;DHT22;7477;45.222;5.688;2023-08-30T08:00:59;14.30;99.90
14771;DHT22;7477;45.222;5.688;2023-08-30T08:04:19;14.40;99.90
14771;DHT22;7477;45.222;5.688;2023-08-30T08:07:39;14.50;99.90
14771;DHT22;7477;45.222;5.688;2023-08-30T08:11:02;14.50;99.90
14771;DHT22;7477;45.222;5.688;2023-08-30T08:14:25;14.50;99.90
14771;DHT22;7477;45.222;5.688;2023-08-30T08:17:44;14.50;99.90
14771;DHT22;7477;45.222;5.688;2023-08-30T08:21:03;14.60;99.90
14771;DHT22;7477;45.222;5.688;2023-08-30T08:24:23;14.70;99.90
14771;DHT22;7477;45.222;5.688;2023-08-30T08:27:42;14.70;99.90
14771;DHT22;7477;45.222;5.688;2023-08-30T08:31:02;14.80;99.90
14771;DHT22;7477;45.222;5.688;2023-08-30T08:34:21;14.90;99.90
14771;DHT22;7477;45.222;5.688;2023-08-30T08:37:41;14.90;99.90
14771;DHT22;7477;45.222;5.688;2023-08-30T08:41:05;15.00;99.90
14771;DHT22;7477;45.222;5.688;2023-08-30T08:44:26;15.00;99.90
14771;DHT22;7477;45.222;5.688;2023-08-30T08:47:47;15.10;99.90
14771;DHT22;7477;45.222;5.688;2023-08-30T08:51:07;15.20;99.90
14771;DHT22;7477;45.222;5.688;2023-08-30T08:54:26;15.20;99.90
14771;DHT22;7477;45.222;5.688;2023-08-30T08:57:46;15.30;99.90
14771;DHT22;7477;45.222;5.688;2023-08-30T09:01:07;15.30;99.90
14771;DHT22;7477;45.222;5.688;2023-08-30T09:04:30;15.40;99.90
14771;DHT22;7477;45.222;5.688;2023-08-30T09:07:50;15.50;99.90
14771;DHT22;7477;45.222;5.688;2023-08-30T09:11:12;15.50;99.90
14771;DHT22;7477;45.222;5.688;2023-08-30T09:14:32;15.60;99.90
14771;DHT22;7477;45.222;5.688;2023-08-30T09:17:51;15.60;99.90
14771;DHT22;7477;45.222;5.688;2023-08-30T09:21:11;15.60;99.90
14771;DHT22;7477;45.222;5.688;2023-08-30T09:24:40;15.70;99.90
14771;DHT22;7477;45.222;5.688;2023-08-30T09:28:00;15.70;99.90
14771;DHT22;7477;45.222;5.688;2023-08-30T09:31:19;15.80;99.90
14771;DHT22;7477;45.222;5.688;2023-08-30T09:34:45;15.90;99.90
14771;DHT22;7477;45.222;5.688;2023-08-30T09:38:05;16.00;99.90
14771;DHT22;7477;45.222;5.688;2023-08-30T09:41:25;16.10;99.90
14771;DHT22;7477;45.222;5.688;2023-08-30T09:44:45;16.10;99.90
14771;DHT22;7477;45.222;5.688;2023-08-30T09:48:05;16.10;99.90
14771;DHT22;7477;45.222;5.688;2023-08-30T09:51:25;16.10;99.90
14771;DHT22;7477;45.222;5.688;2023-08-30T09:54:46;16.20;99.90
14771;DHT22;7477;45.222;5.688;2023-08-30T09:58:07;16.20;99.90
14771;DHT22;7477;45.222;5.688;2023-08-30T10:01:27;16.40;99.90
14771;DHT22;7477;45.222;5.688;2023-08-30T10:04:47;16.40;99.90
14771;DHT22;7477;45.222;5.688;2023-08-30T10:08:07;16.50;99.90
14771;DHT22;7477;45.222;5.688;2023-08-30T10:11:28;16.60;99.90
14771;DHT22;7477;45.222;5.688;2023-08-30T10:14:48;16.70;99.90
14771;DHT22;7477;45.222;5.688;2023-08-30T10:18:09;16.60;99.90
14771;DHT22;7477;45.222;5.688;2023-08-30T10:21:31;16.60;99.90
14771;DHT22;7477;45.222;5.688;2023-08-30T10:24:59;16.80;99.90
14771;DHT22;7477;45.222;5.688;2023-08-30T10:28:22;17.00;99.90
14771;DHT22;7477;45.222;5.688;2023-08-30T10:31:42;17.20;99.90
14771;DHT22;7477;45.222;5.688;2023-08-30T10:35:03;17.40;99.90
14771;DHT22;7477;45.222;5.688;2023-08-30T10:38:26;17.60;99.90
14771;DHT22;7477;45.222;5.688;2023-08-30T10:41:58;17.60;99.90
14771;DHT22;7477;45.222;5.688;2023-08-30T10:45:23;17.60;99.90
14771;DHT22;7477;45.222;5.688;2023-08-30T10:48:43;17.80;99.90
14771;DHT22;7477;45.222;5.688;2023-08-30T10:52:02;18.00;99.90
14771;DHT22;7477;45.222;5.688;2023-08-30T10:55:22;18.20;99.90
14771;DHT22;7477;45.222;5.688;2023-08-30T10:58:43;18.40;99.90
14771;DHT22;7477;45.222;5.688;2023-08-30T11:02:06;18.50;99.90
14771;DHT22;7477;45.222;5.688;2023-08-30T11:05:26;18.60;99.90
14771;DHT22;7477;45.222;5.688;2023-08-30T11:08:47;18.70;99.90
14771;DHT22;7477;45.222;5.688;2023-08-30T11:12:07;18.90;99.90
14771;DHT22;7477;45.222;5.688;2023-08-30T11:15:27;18.80;99.90
14771;DHT22;7477;45.222;5.688;2023-08-30T11:18:46;18.90;99.90
14771;DHT22;7477;45.222;5.688;2023-08-30T11:22:08;19.10;99.70
14771;DHT22;7477;45.222;5.688;2023-08-30T11:25:28;19.00;99.80
14771;DHT22;7477;45.222;5.688;2023-08-30T11:28:47;19.30;98.90
14771;DHT22;7477;45.222;5.688;2023-08-30T11:32:07;19.40;98.60
14771;DHT22;7477;45.222;5.688;2023-08-30T11:35:27;19.50;98.50
14771;DHT22;7477;45.222;5.688;2023-08-30T11:38:46;19.60;98.40
14771;DHT22;7477;45.222;5.688;2023-08-30T11:42:05;19.60;97.20
14771;DHT22;7477;45.222;5.688;2023-08-30T11:45:25;19.50;97.40
14771;DHT22;7477;45.222;5.688;2023-08-30T11:48:46;19.60;97.40
14771;DHT22;7477;45.222;5.688;2023-08-30T11:52:06;19.70;97.40
14771;DHT22;7477;45.222;5.688;2023-08-30T11:55:26;19.70;96.90
14771;DHT22;7477;45.222;5.688;2023-08-30T11:58:46;19.80;96.90
14771;DHT22;7477;45.222;5.688;2023-08-30T12:02:07;19.80;96.60
14771;DHT22;7477;45.222;5.688;2023-08-30T12:05:27;19.80;96.70
14771;DHT22;7477;45.222;5.688;2023-08-30T12:08:46;19.80;96.70
14771;DHT22;7477;45.222;5.688;2023-08-30T12:12:12;20.00;96.20
14771;DHT22;7477;45.222;5.688;2023-08-30T12:15:31;20.10;95.10
14771;DHT22;7477;45.222;5.688;2023-08-30T12:18:53;20.20;95.00
14771;DHT22;7477;45.222;5.688;2023-08-30T12:22:12;20.30;94.60
14771;DHT22;7477;45.222;5.688;2023-08-30T12:25:31;20.40;94.90
14771;DHT22;7477;45.222;5.688;2023-08-30T12:28:52;20.60;94.20
14771;DHT22;7477;45.222;5.688;2023-08-30T12:32:11;20.60;93.90
14771;DHT22;7477;45.222;5.688;2023-08-30T12:35:31;20.60;94.60
14771;DHT22;7477;45.222;5.688;2023-08-30T12:38:50;20.70;94.90
14771;DHT22;7477;45.222;5.688;2023-08-30T12:42:09;20.80;94.60
14771;DHT22;7477;45.222;5.688;2023-08-30T12:45:29;20.70;93.80
14771;DHT22;7477;45.222;5.688;2023-08-30T12:48:49;20.90;94.00
14771;DHT22;7477;45.222;5.688;2023-08-30T12:52:08;20.80;93.20
14771;DHT22;7477;45.222;5.688;2023-08-30T12:55:27;20.70;92.40
14771;DHT22;7477;45.222;5.688;2023-08-30T12:58:47;20.90;92.60
14771;DHT22;7477;45.222;5.688;2023-08-30T13:02:06;20.70;92.90
14771;DHT22;7477;45.222;5.688;2023-08-30T13:05:26;20.90;92.50
14771;DHT22;7477;45.222;5.688;2023-08-30T13:08:45;21.00;92.20
14771;DHT22;7477;45.222;5.688;2023-08-30T13:12:04;21.20;92.70
14771;DHT22;7477;45.222;5.688;2023-08-30T13:15:24;21.30;91.20
14771;DHT22;7477;45.222;5.688;2023-08-30T13:18:43;21.30;91.10
14771;DHT22;7477;45.222;5.688;2023-08-30T13:22:02;21.40;91.20
14771;DHT22;7477;45.222;5.688;2023-08-30T13:25:21;21.30;91.30
14771;DHT22;7477;45.222;5.688;2023-08-30T13:28:40;21.50;90.40
14771;DHT22;7477;45.222;5.688;2023-08-30T13:31:59;21.40;90.20
14771;DHT22;7477;45.222;5.688;2023-08-30T13:35:19;21.40;90.90
14771;DHT22;7477;45.222;5.688;2023-08-30T13:38:38;21.40;90.50
14771;DHT22;7477;45.222;5.688;2023-08-30T13:41:57;21.50;90.60
14771;DHT22;7477;45.222;5.688;2023-08-30T13:45:16;21.50;90.90
14771;DHT22;7477;45.222;5.688;2023-08-30T13:48:36;21.50;91.00
14771;DHT22;7477;45.222;5.688;2023-08-30T13:51:55;21.60;90.00
14771;DHT22;7477;45.222;5.688;2023-08-30T13:55:14;21.60;90.40
14771;DHT22;7477;45.222;5.688;2023-08-30T13:58:33;21.70;90.20
14771;DHT22;7477;45.222;5.688;2023-08-30T14:01:52;21.60;90.40
14771;DHT22;7477;45.222;5.688;2023-08-30T14:05:11;21.70;90.20
14771;DHT22;7477;45.222;5.688;2023-08-30T14:08:31;21.80;90.00
14771;DHT22;7477;45.222;5.688;2023-08-30T14:11:50;22.00;89.70
14771;DHT22;7477;45.222;5.688;2023-08-30T14:15:09;22.00;89.70
14771;DHT22;7477;45.222;5.688;2023-08-30T14:18:29;22.10;89.10
14771;DHT22;7477;45.222;5.688;2023-08-30T14:21:48;22.10;90.00
14771;DHT22;7477;45.222;5.688;2023-08-30T14:25:07;22.30;89.70
14771;DHT22;7477;45.222;5.688;2023-08-30T14:28:27;22.40;88.10
14771;DHT22;7477;45.222;5.688;2023-08-30T14:31:46;22.40;88.90
14771;DHT22;7477;45.222;5.688;2023-08-30T14:35:06;22.50;88.60
14771;DHT22;7477;45.222;5.688;2023-08-30T14:38:25;22.60;88.30
14771;DHT22;7477;45.222;5.688;2023-08-30T14:41:44;22.50;88.10
14771;DHT22;7477;45.222;5.688;2023-08-30T14:45:04;22.60;87.20
14771;DHT22;7477;45.222;5.688;2023-08-30T14:48:24;22.50;87.70
14771;DHT22;7477;45.222;5.688;2023-08-30T14:51:43;22.60;87.80
14771;DHT22;7477;45.222;5.688;2023-08-30T14:55:03;22.60;86.70
14771;DHT22;7477;45.222;5.688;2023-08-30T14:58:23;22.60;85.60
14771;DHT22;7477;45.222;5.688;2023-08-30T15:01:42;22.60;86.30
14771;DHT22;7477;45.222;5.688;2023-08-30T15:05:02;22.60;85.30
14771;DHT22;7477;45.222;5.688;2023-08-30T15:08:22;22.60;85.30
14771;DHT22;7477;45.222;5.688;2023-08-30T15:11:42;22.60;86.30
14771;DHT22;7477;45.222;5.688;2023-08-30T15:15:01;22.70;86.50
14771;DHT22;7477;45.222;5.688;2023-08-30T15:18:22;22.90;87.20
14771;DHT22;7477;45.222;5.688;2023-08-30T15:21:41;23.10;86.00
14771;DHT22;7477;45.222;5.688;2023-08-30T15:25:01;23.00;83.80
14771;DHT22;7477;45.222;5.688;2023-08-30T15:28:25;23.00;84.40
14771;DHT22;7477;45.222;5.688;2023-08-30T15:31:44;23.00;83.80
14771;DHT22;7477;45.222;5.688;2023-08-30T15:35:04;23.10;82.70
14771;DHT22;7477;45.222;5.688;2023-08-30T15:38:24;23.20;81.50
14771;DHT22;7477;45.222;5.688;2023-08-30T15:41:43;23.00;81.20
14771;DHT22;7477;45.222;5.688;2023-08-30T15:45:03;23.00;82.00
14771;DHT22;7477;45.222;5.688;2023-08-30T15:48:26;23.20;82.70
14771;DHT22;7477;45.222;5.688;2023-08-30T15:51:45;23.30;82.20
14771;DHT22;7477;45.222;5.688;2023-08-30T15:55:05;23.30;81.70
14771;DHT22;7477;45.222;5.688;2023-08-30T15:58:25;23.40;81.60
14771;DHT22;7477;45.222;5.688;2023-08-30T16:01:44;22.60;83.70
14771;DHT22;7477;45.222;5.688;2023-08-30T16:05:03;21.90;85.70
14771;DHT22;7477;45.222;5.688;2023-08-30T16:08:23;21.90;85.90
14771;DHT22;7477;45.222;5.688;2023-08-30T16:11:46;22.00;86.00
14771;DHT22;7477;45.222;5.688;2023-08-30T16:15:06;22.10;86.00
14771;DHT22;7477;45.222;5.688;2023-08-30T16:18:25;22.20;85.70
14771;DHT22;7477;45.222;5.688;2023-08-30T16:21:44;22.00;86.00
14771;DHT22;7477;45.222;5.688;2023-08-30T16:25:04;22.10;85.80
14771;DHT22;7477;45.222;5.688;2023-08-30T16:28:25;21.90;86.80
14771;DHT22;7477;45.222;5.688;2023-08-30T16:31:45;22.00;86.80
14771;DHT22;7477;45.222;5.688;2023-08-30T16:35:05;22.10;85.70
14771;DHT22;7477;45.222;5.688;2023-08-30T16:38:24;22.20;85.60
14771;DHT22;7477;45.222;5.688;2023-08-30T16:41:45;21.90;87.30
14771;DHT22;7477;45.222;5.688;2023-08-30T16:45:04;21.80;87.80
14771;DHT22;7477;45.222;5.688;2023-08-30T16:48:25;22.00;86.70
14771;DHT22;7477;45.222;5.688;2023-08-30T16:51:44;22.40;82.70
14771;DHT22;7477;45.222;5.688;2023-08-30T16:55:03;22.20;82.90
14771;DHT22;7477;45.222;5.688;2023-08-30T16:58:23;22.10;84.40
14771;DHT22;7477;45.222;5.688;2023-08-30T17:01:43;22.00;85.30
14771;DHT22;7477;45.222;5.688;2023-08-30T17:05:02;22.00;84.00
14771;DHT22;7477;45.222;5.688;2023-08-30T17:08:21;22.00;84.00
14771;DHT22;7477;45.222;5.688;2023-08-30T17:11:41;21.90;82.30
14771;DHT22;7477;45.222;5.688;2023-08-30T17:15:03;21.80;82.60
14771;DHT22;7477;45.222;5.688;2023-08-30T17:18:23;21.70;82.80
14771;DHT22;7477;45.222;5.688;2023-08-30T17:21:42;21.70;82.50
14771;DHT22;7477;45.222;5.688;2023-08-30T17:25:01;21.60;83.20
14771;DHT22;7477;45.222;5.688;2023-08-30T17:28:21;21.50;82.50
14771;DHT22;7477;45.222;5.688;2023-08-30T17:31:41;21.50;82.20
14771;DHT22;7477;45.222;5.688;2023-08-30T17:35:00;21.40;82.60
14771;DHT22;7477;45.222;5.688;2023-08-30T17:38:19;21.40;82.50
14771;DHT22;7477;45.222;5.688;2023-08-30T17:41:39;21.30;82.60
14771;DHT22;7477;45.222;5.688;2023-08-30T17:44:58;21.20;82.60
14771;DHT22;7477;45.222;5.688;2023-08-30T17:48:19;21.10;83.30
14771;DHT22;7477;45.222;5.688;2023-08-30T17:51:39;21.00;84.20
14771;DHT22;7477;45.222;5.688;2023-08-30T17:54:58;20.90;84.60
14771;DHT22;7477;45.222;5.688;2023-08-30T17:58:18;20.90;85.10
14771;DHT22;7477;45.222;5.688;2023-08-30T18:01:37;20.80;85.20
14771;DHT22;7477;45.222;5.688;2023-08-30T18:04:56;20.70;85.10
14771;DHT22;7477;45.222;5.688;2023-08-30T18:08:16;20.60;85.40
14771;DHT22;7477;45.222;5.688;2023-08-30T18:11:35;20.60;86.10
14771;DHT22;7477;45.222;5.688;2023-08-30T18:14:55;20.50;85.50
14771;DHT22;7477;45.222;5.688;2023-08-30T18:18:14;20.50;86.20
14771;DHT22;7477;45.222;5.688;2023-08-30T18:21:33;20.40;86.60
14771;DHT22;7477;45.222;5.688;2023-08-30T18:24:53;20.30;86.90
14771;DHT22;7477;45.222;5.688;2023-08-30T18:28:12;20.20;87.40
14771;DHT22;7477;45.222;5.688;2023-08-30T18:31:32;20.10;87.70
14771;DHT22;7477;45.222;5.688;2023-08-30T18:34:51;20.00;87.70
14771;DHT22;7477;45.222;5.688;2023-08-30T18:38:10;20.00;88.40
14771;DHT22;7477;45.222;5.688;2023-08-30T18:41:30;19.90;88.10
14771;DHT22;7477;45.222;5.688;2023-08-30T18:44:50;19.80;88.50
14771;DHT22;7477;45.222;5.688;2023-08-30T18:48:09;19.80;88.20
14771;DHT22;7477;45.222;5.688;2023-08-30T18:51:28;19.80;87.40
14771;DHT22;7477;45.222;5.688;2023-08-30T18:54:48;19.80;87.70
14771;DHT22;7477;45.222;5.688;2023-08-30T18:58:09;19.70;87.40
14771;DHT22;7477;45.222;5.688;2023-08-30T19:01:28;19.60;87.90
14771;DHT22;7477;45.222;5.688;2023-08-30T19:04:50;19.50;88.40
14771;DHT22;7477;45.222;5.688;2023-08-30T19:08:09;19.50;88.60
14771;DHT22;7477;45.222;5.688;2023-08-30T19:11:30;19.40;88.90
14771;DHT22;7477;45.222;5.688;2023-08-30T19:14:49;19.30;88.60
14771;DHT22;7477;45.222;5.688;2023-08-30T19:18:08;19.20;88.80
14771;DHT22;7477;45.222;5.688;2023-08-30T19:21:29;19.20;89.50
14771;DHT22;7477;45.222;5.688;2023-08-30T19:24:48;19.10;89.60
14771;DHT22;7477;45.222;5.688;2023-08-30T19:28:07;19.10;90.00
14771;DHT22;7477;45.222;5.688;2023-08-30T19:31:30;19.00;89.90
14771;DHT22;7477;45.222;5.688;2023-08-30T19:34:50;19.00;90.00
14771;DHT22;7477;45.222;5.688;2023-08-30T19:38:11;18.90;90.10
14771;DHT22;7477;45.222;5.688;2023-08-30T19:41:30;18.90;90.10
14771;DHT22;7477;45.222;5.688;2023-08-30T19:44:50;18.80;90.50
14771;DHT22;7477;45.222;5.688;2023-08-30T19:48:20;18.70;89.90
14771;DHT22;7477;45.222;5.688;2023-08-30T19:51:39;18.70;89.70
14771;DHT22;7477;45.222;5.688;2023-08-30T19:54:58;18.60;90.00
14771;DHT22;7477;45.222;5.688;2023-08-30T19:58:21;18.60;90.00
14771;DHT22;7477;45.222;5.688;2023-08-30T20:01:40;18.60;89.90
14771;DHT22;7477;45.222;5.688;2023-08-30T20:04:59;18.60;89.80
14771;DHT22;7477;45.222;5.688;2023-08-30T20:08:19;18.50;90.00
14771;DHT22;7477;45.222;5.688;2023-08-30T20:11:38;18.50;90.10
14771;DHT22;7477;45.222;5.688;2023-08-30T20:14:57;18.40;90.10
14771;DHT22;7477;45.222;5.688;2023-08-30T20:18:17;18.40;90.10
14771;DHT22;7477;45.222;5.688;2023-08-30T20:21:45;18.40;90.00
14771;DHT22;7477;45.222;5.688;2023-08-30T20:25:05;18.30;90.30
14771;DHT22;7477;45.222;5.688;2023-08-30T20:28:24;18.20;90.50
14771;DHT22;7477;45.222;5.688;2023-08-30T20:31:43;18.20;90.50
14771;DHT22;7477;45.222;5.688;2023-08-30T20:35:04;18.10;90.80
14771;DHT22;7477;45.222;5.688;2023-08-30T20:38:24;18.10;90.80
14771;DHT22;7477;45.222;5.688;2023-08-30T20:41:46;18.00;90.70
14771;DHT22;7477;45.222;5.688;2023-08-30T20:45:05;18.00;90.80
14771;DHT22;7477;45.222;5.688;2023-08-30T20:48:25;17.90;90.80
14771;DHT22;7477;45.222;5.688;2023-08-30T20:51:45;18.00;90.60
14771;DHT22;7477;45.222;5.688;2023-08-30T20:55:04;18.00;90.90
14771;DHT22;7477;45.222;5.688;2023-08-30T20:58:25;18.00;90.80
14771;DHT22;7477;45.222;5.688;2023-08-30T21:01:45;18.00;91.00
14771;DHT22;7477;45.222;5.688;2023-08-30T21:05:05;17.90;90.90
14771;DHT22;7477;45.222;5.688;2023-08-30T21:08:24;17.80;90.70
14771;DHT22;7477;45.222;5.688;2023-08-30T21:11:44;17.90;90.50
14771;DHT22;7477;45.222;5.688;2023-08-30T21:15:04;17.80;90.70
14771;DHT22;7477;45.222;5.688;2023-08-30T21:18:24;17.80;90.70
14771;DHT22;7477;45.222;5.688;2023-08-30T21:21:43;17.70;90.50
14771;DHT22;7477;45.222;5.688;2023-08-30T21:25:03;17.70;90.50